createdAt,value
2023-06-19T00:00:38.666Z,17.95
2023-06-19T00:03:07.544Z,19.35
2023-06-19T00:05:36.530Z,18.50
2023-06-19T00:08:07.626Z,20.13
2023-06-19T00:10:36.440Z,19.58
2023-06-19T00:13:06.680Z,18.50
2023-06-19T00:15:35.445Z,20.17
2023-06-19T00:18:04.216Z,18.98
2023-06-19T00:20:33.060Z,21.67
2023-06-19T00:23:01.834Z,18.67
2023-06-19T00:25:30.594Z,18.00
2023-06-19T00:27:59.476Z,19.67
2023-06-19T00:30:33.877Z,19.25
2023-06-19T00:33:03.594Z,18.65
2023-06-19T00:35:32.585Z,21.38
2023-06-19T00:38:02.136Z,19.25
2023-06-19T00:40:32.192Z,18.88
2023-06-19T00:43:01.380Z,19.20
2023-06-19T00:45:31.787Z,18.42
2023-06-19T00:48:01.637Z,18.67
2023-06-19T00:50:32.158Z,18.98
2023-06-19T00:53:01.300Z,20.42
2023-06-19T00:55:31.664Z,18.35
2023-06-19T00:58:01.012Z,19.63
2023-06-19T01:00:31.214Z,21.38
2023-06-19T01:03:00.295Z,22.00
2023-06-19T01:05:31.496Z,20.48
2023-06-19T01:08:02.266Z,23.45
2023-06-19T01:10:33.480Z,21.02
2023-06-19T01:13:05.808Z,22.73
2023-06-19T01:15:36.317Z,22.00
2023-06-19T01:18:05.804Z,21.38
2023-06-19T01:20:34.693Z,24.10
2023-06-19T01:23:09.819Z,23.52
2023-06-19T01:25:38.892Z,21.98
2023-06-19T01:28:10.684Z,21.63
2023-06-19T01:30:40.488Z,22.63
2023-06-19T01:33:12.482Z,20.55
2023-06-19T01:35:42.184Z,19.70
2023-06-19T01:38:12.646Z,20.10
2023-06-19T01:40:42.567Z,18.70
2023-06-19T01:43:13.048Z,19.88
2023-06-19T01:45:44.123Z,19.48
2023-06-19T01:48:13.181Z,19.45
2023-06-19T01:50:41.965Z,18.23
2023-06-19T01:53:12.187Z,18.52
2023-06-19T01:55:40.994Z,17.92
2023-06-19T01:58:09.837Z,17.77
2023-06-19T02:00:38.695Z,18.33
2023-06-19T02:03:07.990Z,17.10
2023-06-19T02:05:40.491Z,17.80
2023-06-19T02:08:09.684Z,16.20
2023-06-19T02:10:40.714Z,16.77
2023-06-19T02:13:09.666Z,16.20
2023-06-19T02:15:39.421Z,15.90
2023-06-19T02:18:08.617Z,16.02
2023-06-19T02:20:37.382Z,15.93
2023-06-19T02:23:06.299Z,14.73
2023-06-19T02:25:36.373Z,14.93
2023-06-19T02:28:06.802Z,14.43
2023-06-19T02:30:35.626Z,14.68
2023-06-19T02:33:04.641Z,14.48
2023-06-19T02:35:33.457Z,14.85
2023-06-19T02:38:02.210Z,14.70
2023-06-19T02:40:31.573Z,14.68
2023-06-19T02:43:00.381Z,14.63
2023-06-19T02:45:30.663Z,14.63
2023-06-19T02:47:59.661Z,14.32
2023-06-19T02:50:28.538Z,13.60
2023-06-19T02:52:57.370Z,14.07
2023-06-19T02:55:26.323Z,13.77
2023-06-19T02:57:55.865Z,13.15
2023-06-19T03:00:25.421Z,12.82
2023-06-19T03:02:55.946Z,13.40
2023-06-19T03:05:24.755Z,12.90
2023-06-19T03:07:53.728Z,13.20
2023-06-19T03:10:22.729Z,12.85
2023-06-19T03:12:51.865Z,13.65
2023-06-19T03:15:20.659Z,13.20
2023-06-19T03:17:52.221Z,13.85
2023-06-19T03:20:23.902Z,14.02
2023-06-19T03:22:58.090Z,13.43
2023-06-19T03:25:28.192Z,12.88
2023-06-19T03:27:57.134Z,12.13
2023-06-19T03:30:26.074Z,12.55
2023-06-19T03:32:55.294Z,12.50
2023-06-19T03:35:42.147Z,13.57
2023-06-19T03:38:16.469Z,13.48
2023-06-19T03:40:45.370Z,13.35
2023-06-19T03:43:15.223Z,13.10
2023-06-19T03:45:46.175Z,13.20
2023-06-19T03:48:15.139Z,13.45
2023-06-19T03:50:45.357Z,13.07
2023-06-19T03:53:14.204Z,13.30
2023-06-19T03:55:43.156Z,13.52
2023-06-19T03:58:12.043Z,14.23
2023-06-19T04:00:42.415Z,14.07
2023-06-19T04:03:11.627Z,14.57
2023-06-19T04:05:43.058Z,13.82
2023-06-19T04:08:15.584Z,15.55
2023-06-19T04:10:45.954Z,15.50
2023-06-19T04:13:14.821Z,16.67
2023-06-19T04:15:46.841Z,15.55
2023-06-19T04:18:17.050Z,16.33
2023-06-19T04:20:45.983Z,18.13
2023-06-19T04:23:16.845Z,16.73
2023-06-19T04:25:45.648Z,15.60
2023-06-19T04:28:14.456Z,16.83
2023-06-19T04:30:44.008Z,16.83
2023-06-19T04:33:13.020Z,15.65
2023-06-19T04:35:42.103Z,17.23
2023-06-19T04:38:11.272Z,15.90
2023-06-19T04:40:44.359Z,17.42
2023-06-19T04:43:13.859Z,15.68
2023-06-19T04:45:43.473Z,15.75
2023-06-19T04:48:12.466Z,15.93
2023-06-19T04:50:41.453Z,15.13
2023-06-19T04:53:10.183Z,17.33
2023-06-19T04:55:39.228Z,15.30
2023-06-19T04:58:09.477Z,16.58
2023-06-19T05:00:38.216Z,15.68
2023-06-19T05:03:07.028Z,15.20
2023-06-19T05:05:35.976Z,16.95
2023-06-19T05:08:04.940Z,16.60
2023-06-19T05:10:33.870Z,14.98
2023-06-19T05:13:03.064Z,17.05
2023-06-19T05:15:33.338Z,17.02
2023-06-19T05:18:02.393Z,17.33
2023-06-19T05:20:31.495Z,17.25
2023-06-19T05:23:00.309Z,19.35
2023-06-19T05:25:30.415Z,18.90
2023-06-19T05:27:59.302Z,20.10
2023-06-19T05:30:28.142Z,17.55
2023-06-19T05:32:58.563Z,20.27
2023-06-19T05:35:27.872Z,17.85
2023-06-19T05:37:56.785Z,17.60
2023-06-19T05:40:26.034Z,17.33
2023-06-19T05:42:56.813Z,18.77
2023-06-19T05:45:25.593Z,17.50
2023-06-19T05:47:54.634Z,19.42
2023-06-19T05:50:25.244Z,19.20
2023-06-19T05:52:54.298Z,20.20
2023-06-19T05:55:23.072Z,18.33
2023-06-19T05:57:51.866Z,17.35
2023-06-19T06:00:20.947Z,20.17
2023-06-19T06:02:49.923Z,26.20
2023-06-19T06:05:20.042Z,20.58
2023-06-19T06:07:50.843Z,19.55
2023-06-19T06:10:20.145Z,17.17
2023-06-19T06:12:48.903Z,19.05
2023-06-19T06:15:17.941Z,16.02
2023-06-19T06:17:47.813Z,18.40
2023-06-19T06:20:17.888Z,16.73
2023-06-19T06:22:46.726Z,21.13
2023-06-19T06:25:17.026Z,17.08
2023-06-19T06:27:46.025Z,16.65
2023-06-19T06:30:16.241Z,16.60
2023-06-19T06:32:46.586Z,17.13
2023-06-19T06:35:15.519Z,17.85
2023-06-19T06:37:45.092Z,18.33
2023-06-19T06:40:13.878Z,18.73
2023-06-19T06:42:44.006Z,16.77
2023-06-19T06:45:13.022Z,17.73
2023-06-19T06:47:42.205Z,16.42
2023-06-19T06:50:12.237Z,15.90
2023-06-19T06:52:41.244Z,15.88
2023-06-19T06:55:10.958Z,16.23
2023-06-19T06:57:39.926Z,15.63
2023-06-19T07:00:12.564Z,15.45
2023-06-19T07:02:42.324Z,16.70
2023-06-19T07:05:11.927Z,18.65
2023-06-19T07:07:40.693Z,13.88
2023-06-19T07:10:10.140Z,13.75
2023-06-19T07:12:38.830Z,14.60
2023-06-19T07:15:08.065Z,13.65
2023-06-19T07:17:38.302Z,14.48
2023-06-19T07:20:08.052Z,13.50
2023-06-19T07:22:36.887Z,13.90
2023-06-19T07:25:06.172Z,13.77
2023-06-19T07:27:35.057Z,12.85
2023-06-19T07:30:03.855Z,11.90
2023-06-19T07:32:32.803Z,11.60
2023-06-19T07:35:03.166Z,11.48
2023-06-19T07:37:33.933Z,10.52
2023-06-19T07:40:04.800Z,10.07
2023-06-19T07:42:33.836Z,11.02
2023-06-19T07:45:02.796Z,12.00
2023-06-19T07:47:33.099Z,10.02
2023-06-19T07:50:03.500Z,9.60
2023-06-19T07:52:32.600Z,10.13
2023-06-19T07:55:01.554Z,10.35
2023-06-19T07:57:30.547Z,10.38
2023-06-19T07:59:59.415Z,10.18
2023-06-19T08:02:28.968Z,9.88
2023-06-19T08:04:57.896Z,9.90
2023-06-19T08:07:28.201Z,9.70
2023-06-19T08:10:07.821Z,9.73
2023-06-19T08:12:40.840Z,9.73
2023-06-19T08:15:10.384Z,9.25
2023-06-19T08:17:39.269Z,9.82
2023-06-19T08:20:09.729Z,8.45
2023-06-19T08:22:40.017Z,10.82
2023-06-19T08:25:09.120Z,10.48
2023-06-19T08:27:38.131Z,11.40
2023-06-19T08:30:07.311Z,9.00
2023-06-19T08:32:36.312Z,8.07
2023-06-19T08:35:05.317Z,9.00
2023-06-19T08:37:34.217Z,10.20
2023-06-19T08:40:06.185Z,9.70
2023-06-19T08:42:35.156Z,8.32
2023-06-19T08:45:04.212Z,9.80
2023-06-19T08:47:35.167Z,8.88
2023-06-19T08:50:04.496Z,8.50
2023-06-19T08:52:33.619Z,8.68
2023-06-19T08:55:05.640Z,9.20
2023-06-19T08:57:38.016Z,9.32
2023-06-19T09:00:08.392Z,9.15
2023-06-19T09:02:40.903Z,9.50
2023-06-19T09:05:16.825Z,10.77
2023-06-19T09:07:45.943Z,9.45
2023-06-19T09:10:18.260Z,9.20
2023-06-19T09:12:59.578Z,10.32
2023-06-19T09:15:30.652Z,11.98
2023-06-19T09:18:07.231Z,9.52
2023-06-19T09:20:37.275Z,9.55
2023-06-19T09:23:06.250Z,9.32
2023-06-19T09:25:46.342Z,9.50
2023-06-19T09:28:19.834Z,9.20
2023-06-19T09:30:58.853Z,8.65
2023-06-19T09:33:28.441Z,9.00
2023-06-19T09:35:57.744Z,8.48
2023-06-19T09:38:27.791Z,8.75
2023-06-19T09:40:59.424Z,9.55
2023-06-19T09:43:33.292Z,8.90
2023-06-19T09:46:02.677Z,11.98
2023-06-19T09:48:32.411Z,8.45
2023-06-19T09:51:03.360Z,8.38
2023-06-19T09:53:33.197Z,13.73
2023-06-19T09:56:03.390Z,8.60
2023-06-19T09:58:32.448Z,8.73
2023-06-19T10:01:01.534Z,8.48
2023-06-19T10:03:34.121Z,11.90
2023-06-19T10:06:03.397Z,9.07
2023-06-19T10:08:32.764Z,11.10
2023-06-19T10:11:02.936Z,11.38
2023-06-19T10:13:35.725Z,10.45
2023-06-19T10:16:04.530Z,8.70
2023-06-19T10:18:35.012Z,10.05
2023-06-19T10:21:04.354Z,8.48
2023-06-19T10:23:38.971Z,12.48
2023-06-19T10:26:09.647Z,8.30
2023-06-19T10:28:38.429Z,8.40
2023-06-19T10:31:08.246Z,8.57
2023-06-19T10:33:38.045Z,9.27
2023-06-19T10:36:16.965Z,9.30
2023-06-19T10:38:48.443Z,9.90
2023-06-19T10:41:19.460Z,8.75
2023-06-19T10:43:56.102Z,8.75
2023-06-19T10:46:25.294Z,9.63
2023-06-19T10:48:57.722Z,11.63
2023-06-19T10:51:26.875Z,9.75
2023-06-19T10:53:57.383Z,11.20
2023-06-19T10:56:28.120Z,9.32
2023-06-19T10:59:00.547Z,11.82
2023-06-19T11:01:39.002Z,14.60
2023-06-19T11:04:08.733Z,9.18
2023-06-19T11:06:37.927Z,9.82
2023-06-19T11:09:06.848Z,9.30
2023-06-19T11:11:41.234Z,10.68
2023-06-19T11:14:10.759Z,13.10
2023-06-19T11:16:40.935Z,17.92
2023-06-19T11:19:10.659Z,18.33
2023-06-19T11:21:40.370Z,11.07
2023-06-19T11:24:13.745Z,12.00
2023-06-19T11:26:50.631Z,11.18
2023-06-19T11:29:21.542Z,10.60
2023-06-19T11:31:50.983Z,10.80
2023-06-19T11:34:24.360Z,10.93
2023-06-19T11:36:54.967Z,12.15
2023-06-19T11:39:24.805Z,9.57
2023-06-19T11:41:55.328Z,9.77
2023-06-19T11:44:24.784Z,10.05
2023-06-19T11:46:53.491Z,9.88
2023-06-19T11:49:22.948Z,9.27
2023-06-19T11:51:52.041Z,10.32
2023-06-19T11:54:21.684Z,10.95
2023-06-19T11:56:50.782Z,10.43
2023-06-19T11:59:20.997Z,9.90
2023-06-19T12:01:49.891Z,9.55
2023-06-19T12:04:19.272Z,11.35
2023-06-19T12:06:48.230Z,11.80
2023-06-19T12:09:16.972Z,11.57
2023-06-19T12:11:46.020Z,10.63
2023-06-19T12:14:15.230Z,10.80
2023-06-19T12:16:45.427Z,10.73
2023-06-19T12:19:20.804Z,11.52
2023-06-19T12:21:49.948Z,9.50
2023-06-19T12:24:18.962Z,9.35
2023-06-19T12:26:47.894Z,10.55
2023-06-19T12:29:16.785Z,9.50
2023-06-19T12:31:47.669Z,14.18
2023-06-19T12:34:30.547Z,8.88
2023-06-19T12:37:00.293Z,9.55
2023-06-19T12:39:29.726Z,9.55
2023-06-19T12:41:58.624Z,10.02
2023-06-19T12:44:27.495Z,9.68
2023-06-19T12:46:59.606Z,8.88
2023-06-19T12:49:28.844Z,8.70
2023-06-19T12:51:57.641Z,8.82
2023-06-19T12:54:26.907Z,8.80
2023-06-19T12:56:56.188Z,8.80
2023-06-19T12:59:25.019Z,10.02
2023-06-19T13:01:53.908Z,8.73
2023-06-19T13:04:24.117Z,8.60
2023-06-19T13:06:53.094Z,8.35
2023-06-19T13:09:21.987Z,8.80
2023-06-19T13:11:50.844Z,8.23
2023-06-19T13:14:19.709Z,7.95
2023-06-19T13:16:48.768Z,9.82
2023-06-19T13:19:18.955Z,11.82
2023-06-19T13:21:52.733Z,7.63
2023-06-19T13:24:23.990Z,11.05
2023-06-19T13:26:53.216Z,9.48
2023-06-19T13:29:22.893Z,8.15
2023-06-19T13:31:51.625Z,9.85
2023-06-19T13:34:22.581Z,6.82
2023-06-19T13:36:52.880Z,8.18
2023-06-19T13:39:21.751Z,7.40
2023-06-19T13:41:50.956Z,7.85
2023-06-19T13:44:20.132Z,8.35
2023-06-19T13:46:49.182Z,8.02
2023-06-19T13:49:17.973Z,9.60
2023-06-19T13:51:46.735Z,7.45
2023-06-19T13:54:16.837Z,14.48
2023-06-19T13:56:45.555Z,12.15
2023-06-19T13:59:14.333Z,10.55
2023-06-19T14:01:43.569Z,9.82
2023-06-19T14:04:12.975Z,7.57
2023-06-19T14:06:43.644Z,7.50
2023-06-19T14:09:12.852Z,8.90
2023-06-19T14:11:43.858Z,12.35
2023-06-19T14:14:12.680Z,6.75
2023-06-19T14:16:41.437Z,12.27
2023-06-19T14:19:10.218Z,6.32
2023-06-19T14:21:39.163Z,10.27
2023-06-19T14:24:08.108Z,8.90
2023-06-19T14:26:37.779Z,10.40
2023-06-19T14:29:09.466Z,6.90
2023-06-19T14:31:38.369Z,7.88
2023-06-19T14:34:07.142Z,7.38
2023-06-19T14:36:35.920Z,7.38
2023-06-19T14:39:05.172Z,7.40
2023-06-19T14:41:34.073Z,6.78
2023-06-19T14:44:02.937Z,8.88
2023-06-19T14:46:39.365Z,14.18
2023-06-19T14:49:08.737Z,8.70
2023-06-19T14:51:37.535Z,8.80
2023-06-19T14:54:06.383Z,9.68
2023-06-19T14:56:35.177Z,8.50
2023-06-19T14:59:04.641Z,8.65
2023-06-19T15:01:34.948Z,7.63
2023-06-19T15:04:03.949Z,8.55
2023-06-19T15:06:32.987Z,11.50
2023-06-19T15:09:03.694Z,12.90
2023-06-19T15:11:34.254Z,7.97
2023-06-19T15:14:03.079Z,10.52
2023-06-19T15:16:32.010Z,8.50
2023-06-19T15:19:02.136Z,8.00
2023-06-19T15:21:30.967Z,10.77
2023-06-19T15:24:00.182Z,10.05
2023-06-19T15:26:29.015Z,7.85
2023-06-19T15:28:57.901Z,9.35
2023-06-19T15:31:26.966Z,8.80
2023-06-19T15:33:55.863Z,9.93
2023-06-19T15:36:26.129Z,9.00
2023-06-19T15:38:54.858Z,8.88
2023-06-19T15:41:23.663Z,8.77
2023-06-19T15:43:52.460Z,8.40
2023-06-19T15:46:21.318Z,9.38
2023-06-19T15:48:50.337Z,10.10
2023-06-19T15:51:19.079Z,9.90
2023-06-19T15:53:49.382Z,10.90
2023-06-19T15:56:18.181Z,9.02
2023-06-19T15:58:47.092Z,9.65
2023-06-19T16:01:15.933Z,11.57
2023-06-19T16:03:44.882Z,11.55
2023-06-19T16:06:13.973Z,9.55
2023-06-19T16:08:43.072Z,9.38
2023-06-19T16:11:13.548Z,8.52
2023-06-19T16:13:42.503Z,10.10
2023-06-19T16:16:11.496Z,11.02
2023-06-19T16:18:40.391Z,11.05
2023-06-19T16:21:09.216Z,8.80
2023-06-19T16:23:39.823Z,9.68
2023-06-19T16:26:08.730Z,10.25
2023-06-19T16:28:38.916Z,10.07
2023-06-19T16:31:09.216Z,10.02
2023-06-19T16:33:39.782Z,9.38
2023-06-19T16:36:10.407Z,10.80
2023-06-19T16:38:40.235Z,10.05
2023-06-19T16:41:09.305Z,10.55
2023-06-19T16:43:39.657Z,10.45
2023-06-19T16:46:08.756Z,10.82
2023-06-19T16:48:37.664Z,10.10
2023-06-19T16:51:06.674Z,11.80
2023-06-19T16:53:35.450Z,11.00
2023-06-19T16:56:04.433Z,10.23
2023-06-19T16:58:33.370Z,10.60
2023-06-19T17:01:03.671Z,10.90
2023-06-19T17:03:32.617Z,10.88
2023-06-19T17:06:01.548Z,10.75
2023-06-19T17:08:30.326Z,10.82
2023-06-19T17:10:59.465Z,11.82
2023-06-19T17:13:28.468Z,12.10
2023-06-19T17:15:57.266Z,11.68
2023-06-19T17:18:27.490Z,12.65
2023-06-19T17:20:57.052Z,10.95
2023-06-19T17:23:25.799Z,12.82
2023-06-19T17:25:54.631Z,11.98
2023-06-19T17:28:23.473Z,11.00
2023-06-19T17:30:52.324Z,11.27
2023-06-19T17:33:21.366Z,12.20
2023-06-19T17:35:51.567Z,11.93
2023-06-19T17:38:21.493Z,10.95
2023-06-19T17:40:50.381Z,11.30
2023-06-19T17:43:19.521Z,11.85
2023-06-19T17:45:48.296Z,11.77
2023-06-19T17:48:17.289Z,11.85
2023-06-19T17:50:46.196Z,12.13
2023-06-19T17:53:16.689Z,14.27
2023-06-19T17:55:45.563Z,15.23
2023-06-19T17:58:14.423Z,12.13
2023-06-19T18:00:43.508Z,11.65
2023-06-19T18:03:12.481Z,12.60
2023-06-19T18:05:41.351Z,12.10
2023-06-19T18:08:10.380Z,12.52
2023-06-19T18:10:40.975Z,13.30
2023-06-19T18:13:09.964Z,12.60
2023-06-19T18:15:38.811Z,12.07
2023-06-19T18:18:07.777Z,12.68
2023-06-19T18:20:37.052Z,10.88
2023-06-19T18:23:05.877Z,12.23
2023-06-19T18:25:34.664Z,12.40
2023-06-19T18:28:04.845Z,11.80
2023-06-19T18:30:33.656Z,11.70
2023-06-19T18:33:04.287Z,12.52
2023-06-19T18:35:34.114Z,12.63
2023-06-19T18:38:03.094Z,13.43
2023-06-19T18:40:31.897Z,11.18
2023-06-19T18:43:00.739Z,10.82
2023-06-19T18:45:31.695Z,10.38
2023-06-19T18:48:00.541Z,9.98
2023-06-19T18:50:29.347Z,8.52
2023-06-19T18:52:58.255Z,9.85
2023-06-19T18:55:27.245Z,7.72
2023-06-19T18:57:56.027Z,7.60
2023-06-19T19:00:25.036Z,7.80
2023-06-19T19:02:55.621Z,6.80
2023-06-19T19:05:24.713Z,6.15
2023-06-19T19:07:53.641Z,6.03
2023-06-19T19:10:22.554Z,6.38
2023-06-19T19:12:51.506Z,6.28
2023-06-19T19:15:20.423Z,6.10
2023-06-19T19:17:49.176Z,6.05
2023-06-19T19:20:19.481Z,5.93
2023-06-19T19:22:48.858Z,5.93
2023-06-19T19:25:17.749Z,5.85
2023-06-19T19:27:46.629Z,6.03
2023-06-19T19:30:15.830Z,5.93
2023-06-19T19:32:44.708Z,6.00
2023-06-19T19:35:13.691Z,5.57
2023-06-19T19:37:44.128Z,5.45
2023-06-19T19:40:13.781Z,5.03
2023-06-19T19:42:43.006Z,5.63
2023-06-19T19:45:12.436Z,5.55
2023-06-19T19:47:41.293Z,5.45
2023-06-19T19:50:11.099Z,5.13
2023-06-19T19:52:40.063Z,4.95
2023-06-19T19:55:12.236Z,5.90
2023-06-19T19:57:41.158Z,5.10
2023-06-19T20:00:10.570Z,4.75
2023-06-19T20:02:39.724Z,5.15
2023-06-19T20:05:08.886Z,5.20
2023-06-19T20:07:38.068Z,7.32
2023-06-19T20:10:07.703Z,6.80
2023-06-19T20:12:38.214Z,4.95
2023-06-19T20:15:08.284Z,4.95
2023-06-19T20:17:37.269Z,5.93
2023-06-19T20:20:07.480Z,5.00
2023-06-19T20:22:36.316Z,5.25
2023-06-19T20:25:05.334Z,5.13
2023-06-19T20:27:34.210Z,5.43
2023-06-19T20:30:04.406Z,5.53
2023-06-19T20:32:33.367Z,5.63
2023-06-19T20:35:02.112Z,5.88
2023-06-19T20:37:31.064Z,5.20
2023-06-19T20:40:01.591Z,6.00
2023-06-19T20:42:30.386Z,5.28
2023-06-19T20:44:59.270Z,5.30
2023-06-19T20:47:29.592Z,5.43
2023-06-19T20:49:58.595Z,6.93
2023-06-19T20:52:27.484Z,5.40
2023-06-19T20:54:56.325Z,5.78
2023-06-19T20:57:25.313Z,5.47
2023-06-19T20:59:54.226Z,5.32
2023-06-19T21:02:23.195Z,5.20
2023-06-19T21:04:53.383Z,5.18
2023-06-19T21:07:22.148Z,5.72
2023-06-19T21:09:50.851Z,5.50
2023-06-19T21:12:19.757Z,7.65
2023-06-19T21:14:48.715Z,5.57
2023-06-19T21:17:17.532Z,5.10
2023-06-19T21:19:47.019Z,5.82
2023-06-19T21:22:17.301Z,5.70
2023-06-19T21:24:46.149Z,5.20
2023-06-19T21:27:14.970Z,5.38
2023-06-19T21:29:44.923Z,6.38
2023-06-19T21:32:13.813Z,5.50
2023-06-19T21:34:42.713Z,5.47
2023-06-19T21:37:11.408Z,6.07
2023-06-19T21:39:41.768Z,5.20
2023-06-19T21:42:10.761Z,5.05
2023-06-19T21:44:39.603Z,4.90
2023-06-19T21:47:08.792Z,5.20
2023-06-19T21:49:37.771Z,5.53
2023-06-19T21:52:07.175Z,4.95
2023-06-19T21:54:35.970Z,4.88
2023-06-19T21:57:06.348Z,5.03
2023-06-19T21:59:35.112Z,5.32
2023-06-19T22:02:03.824Z,5.10
2023-06-19T22:04:32.577Z,5.55
2023-06-19T22:07:01.362Z,5.72
2023-06-19T22:09:30.317Z,5.90
2023-06-19T22:11:59.159Z,5.90
2023-06-19T22:14:29.297Z,5.95
2023-06-19T22:16:58.143Z,5.72
2023-06-19T22:19:26.950Z,5.18
2023-06-19T22:21:55.714Z,5.28
2023-06-19T22:24:24.776Z,5.53
2023-06-19T22:26:53.594Z,5.97
2023-06-19T22:29:22.254Z,4.75
2023-06-19T22:31:52.695Z,5.55
2023-06-19T22:34:21.811Z,4.80
2023-06-19T22:36:50.809Z,6.55
2023-06-19T22:39:19.685Z,5.63
2023-06-19T22:41:48.606Z,4.97
2023-06-19T22:44:17.348Z,5.38
2023-06-19T22:46:46.149Z,5.80
2023-06-19T22:49:16.321Z,6.00
2023-06-19T22:51:45.185Z,5.30
2023-06-19T22:54:14.010Z,5.55
2023-06-19T22:56:42.989Z,5.32
2023-06-19T22:59:12.200Z,5.63
2023-06-19T23:01:40.931Z,5.88
2023-06-19T23:04:10.531Z,5.75
2023-06-19T23:06:44.110Z,6.07
2023-06-19T23:09:13.527Z,5.97
2023-06-19T23:11:42.983Z,5.85
2023-06-19T23:14:12.803Z,6.25
2023-06-19T23:16:42.299Z,6.55
2023-06-19T23:19:11.743Z,6.20
2023-06-19T23:21:41.940Z,6.10
2023-06-19T23:24:11.671Z,7.20
2023-06-19T23:26:40.649Z,7.10
2023-06-19T23:29:09.373Z,7.80
2023-06-19T23:31:41.851Z,6.95
2023-06-19T23:34:11.032Z,7.45
2023-06-19T23:36:39.909Z,6.70
2023-06-19T23:39:10.179Z,7.25
2023-06-19T23:41:38.911Z,7.43
2023-06-19T23:44:07.754Z,6.75
2023-06-19T23:46:37.760Z,7.70
2023-06-19T23:49:06.464Z,7.40
2023-06-19T23:51:36.310Z,7.68
2023-06-19T23:54:05.381Z,7.18
2023-06-19T23:56:35.574Z,6.95
2023-06-19T23:59:04.380Z,7.07
